sensor_id;sensor_type;location;lat;lon;timestamp;pressure;altitude;pressure_sealevel;temperature;humidity
10946;BME280;5525;42.648;23.368;2023-09-18T00:00:17;95206.06;;;16.96;100.00
10946;BME280;5525;42.648;23.368;2023-09-18T00:02:44;95208.72;;;16.93;100.00
10946;BME280;5525;42.648;23.368;2023-09-18T00:05:10;95199.03;;;16.95;100.00
10946;BME280;5525;42.648;23.368;2023-09-18T00:07:41;95202.81;;;16.91;100.00
10946;BME280;5525;42.648;23.368;2023-09-18T00:10:10;95193.75;;;16.87;100.00
10946;BME280;5525;42.648;23.368;2023-09-18T00:12:37;95193.47;;;16.92;100.00
10946;BME280;5525;42.648;23.368;2023-09-18T00:15:05;95195.22;;;16.84;100.00
10946;BME280;5525;42.648;23.368;2023-09-18T00:17:33;95192.41;;;16.96;100.00
10946;BME280;5525;42.648;23.368;2023-09-18T00:20:00;95190.31;;;16.90;100.00
10946;BME280;5525;42.648;23.368;2023-09-18T00:22:28;95185.22;;;16.88;100.00
10946;BME280;5525;42.648;23.368;2023-09-18T00:24:55;95189.06;;;16.87;100.00
10946;BME280;5525;42.648;23.368;2023-09-18T00:27:23;95194.88;;;16.85;100.00
10946;BME280;5525;42.648;23.368;2023-09-18T00:29:49;95196.03;;;16.84;100.00
10946;BME280;5525;42.648;23.368;2023-09-18T00:32:16;95197.97;;;16.84;100.00
10946;BME280;5525;42.648;23.368;2023-09-18T00:34:43;95190.13;;;16.82;100.00
10946;BME280;5525;42.648;23.368;2023-09-18T00:37:09;95193.31;;;16.84;100.00
10946;BME280;5525;42.648;23.368;2023-09-18T00:39:37;95197.34;;;16.91;100.00
10946;BME280;5525;42.648;23.368;2023-09-18T00:42:04;95197.88;;;16.96;100.00
10946;BME280;5525;42.648;23.368;2023-09-18T00:44:32;95195.81;;;17.05;100.00
10946;BME280;5525;42.648;23.368;2023-09-18T00:46:59;95199.66;;;17.04;100.00
10946;BME280;5525;42.648;23.368;2023-09-18T00:49:25;95192.78;;;17.10;100.00
10946;BME280;5525;42.648;23.368;2023-09-18T00:51:52;95191.91;;;17.06;100.00
10946;BME280;5525;42.648;23.368;2023-09-18T00:54:19;95199.41;;;17.09;100.00
10946;BME280;5525;42.648;23.368;2023-09-18T00:56:46;95206.28;;;17.19;100.00
10946;BME280;5525;42.648;23.368;2023-09-18T00:59:19;95200.81;;;17.19;100.00
10946;BME280;5525;42.648;23.368;2023-09-18T01:01:48;95201.34;;;17.24;100.00
10946;BME280;5525;42.648;23.368;2023-09-18T01:04:16;95204.66;;;17.33;100.00
10946;BME280;5525;42.648;23.368;2023-09-18T01:06:43;95199.81;;;17.42;100.00
10946;BME280;5525;42.648;23.368;2023-09-18T01:09:10;95209.97;;;17.42;100.00
10946;BME280;5525;42.648;23.368;2023-09-18T01:11:45;95205.03;;;17.47;100.00
10946;BME280;5525;42.648;23.368;2023-09-18T01:14:19;95214.63;;;17.41;100.00
10946;BME280;5525;42.648;23.368;2023-09-18T01:16:53;95210.47;;;17.32;100.00
10946;BME280;5525;42.648;23.368;2023-09-18T01:19:36;95210.47;;;17.32;100.00
10946;BME280;5525;42.648;23.368;2023-09-18T01:22:03;95208.91;;;17.31;100.00
10946;BME280;5525;42.648;23.368;2023-09-18T01:24:32;95216.84;;;17.36;100.00
10946;BME280;5525;42.648;23.368;2023-09-18T01:26:58;95207.22;;;17.42;100.00
10946;BME280;5525;42.648;23.368;2023-09-18T01:29:25;95212.16;;;17.36;100.00
10946;BME280;5525;42.648;23.368;2023-09-18T01:31:52;95209.16;;;17.41;100.00
10946;BME280;5525;42.648;23.368;2023-09-18T01:34:20;95204.41;;;17.38;100.00
10946;BME280;5525;42.648;23.368;2023-09-18T01:36:49;95208.66;;;17.36;100.00
10946;BME280;5525;42.648;23.368;2023-09-18T01:39:18;95210.94;;;17.34;100.00
10946;BME280;5525;42.648;23.368;2023-09-18T01:41:48;95213.31;;;17.35;100.00
10946;BME280;5525;42.648;23.368;2023-09-18T01:44:15;95210.84;;;17.30;100.00
10946;BME280;5525;42.648;23.368;2023-09-18T01:46:42;95214.00;;;17.32;100.00
10946;BME280;5525;42.648;23.368;2023-09-18T01:49:10;95218.75;;;17.20;100.00
10946;BME280;5525;42.648;23.368;2023-09-18T01:51:36;95211.28;;;17.17;100.00
10946;BME280;5525;42.648;23.368;2023-09-18T01:54:03;95214.63;;;17.10;100.00
10946;BME280;5525;42.648;23.368;2023-09-18T01:56:30;95210.06;;;17.14;100.00
10946;BME280;5525;42.648;23.368;2023-09-18T01:58:58;95212.44;;;17.16;100.00
10946;BME280;5525;42.648;23.368;2023-09-18T02:01:24;95214.00;;;17.17;100.00
10946;BME280;5525;42.648;23.368;2023-09-18T02:03:51;95216.38;;;17.18;100.00
10946;BME280;5525;42.648;23.368;2023-09-18T02:06:18;95219.91;;;17.19;100.00
10946;BME280;5525;42.648;23.368;2023-09-18T02:08:44;95216.38;;;17.18;100.00
10946;BME280;5525;42.648;23.368;2023-09-18T02:11:11;95213.41;;;17.23;100.00
10946;BME280;5525;42.648;23.368;2023-09-18T02:13:38;95215.59;;;17.18;100.00
10946;BME280;5525;42.648;23.368;2023-09-18T02:16:06;95223.78;;;17.18;100.00
10946;BME280;5525;42.648;23.368;2023-09-18T02:18:32;95222.66;;;17.19;100.00
10946;BME280;5525;42.648;23.368;2023-09-18T02:20:59;95226.59;;;17.21;100.00
10946;BME280;5525;42.648;23.368;2023-09-18T02:23:26;95219.28;;;17.25;100.00
10946;BME280;5525;42.648;23.368;2023-09-18T02:25:56;95225.03;;;17.20;100.00
10946;BME280;5525;42.648;23.368;2023-09-18T02:28:22;95228.88;;;17.19;100.00
10946;BME280;5525;42.648;23.368;2023-09-18T02:30:49;95217.88;;;17.16;100.00
10946;BME280;5525;42.648;23.368;2023-09-18T02:33:17;95218.25;;;17.14;100.00
10946;BME280;5525;42.648;23.368;2023-09-18T02:35:44;95222.81;;;17.10;100.00
10946;BME280;5525;42.648;23.368;2023-09-18T02:38:10;95221.13;;;17.06;100.00
10946;BME280;5525;42.648;23.368;2023-09-18T02:40:37;95225.09;;;17.08;100.00
10946;BME280;5525;42.648;23.368;2023-09-18T02:43:04;95222.91;;;17.14;100.00
10946;BME280;5525;42.648;23.368;2023-09-18T02:45:31;95219.56;;;17.05;100.00
10946;BME280;5525;42.648;23.368;2023-09-18T02:47:58;95208.19;;;17.03;100.00
10946;BME280;5525;42.648;23.368;2023-09-18T02:50:26;95214.44;;;17.03;100.00
10946;BME280;5525;42.648;23.368;2023-09-18T02:52:53;95211.00;;;16.91;100.00
10946;BME280;5525;42.648;23.368;2023-09-18T02:55:19;95214.59;;;16.95;100.00
10946;BME280;5525;42.648;23.368;2023-09-18T02:57:47;95219.88;;;16.88;100.00
10946;BME280;5525;42.648;23.368;2023-09-18T03:00:14;95219.16;;;16.75;100.00
10946;BME280;5525;42.648;23.368;2023-09-18T03:02:40;95220.91;;;16.67;100.00
10946;BME280;5525;42.648;23.368;2023-09-18T03:05:07;95223.88;;;16.62;100.00
10946;BME280;5525;42.648;23.368;2023-09-18T03:07:36;95234.34;;;16.60;100.00
10946;BME280;5525;42.648;23.368;2023-09-18T03:10:04;95231.97;;;16.59;100.00
10946;BME280;5525;42.648;23.368;2023-09-18T03:12:31;95226.66;;;16.50;100.00
10946;BME280;5525;42.648;23.368;2023-09-18T03:14:58;95223.38;;;16.45;100.00
10946;BME280;5525;42.648;23.368;2023-09-18T03:17:25;95224.63;;;16.47;100.00
10946;BME280;5525;42.648;23.368;2023-09-18T03:19:52;95225.63;;;16.43;100.00
10946;BME280;5525;42.648;23.368;2023-09-18T03:22:19;95219.66;;;16.37;100.00
10946;BME280;5525;42.648;23.368;2023-09-18T03:24:47;95221.78;;;16.44;100.00
10946;BME280;5525;42.648;23.368;2023-09-18T03:27:14;95221.88;;;16.47;100.00
10946;BME280;5525;42.648;23.368;2023-09-18T03:29:40;95220.66;;;16.33;100.00
10946;BME280;5525;42.648;23.368;2023-09-18T03:32:07;95212.53;;;16.21;100.00
10946;BME280;5525;42.648;23.368;2023-09-18T03:34:37;95207.41;;;16.19;100.00
10946;BME280;5525;42.648;23.368;2023-09-18T03:37:04;95208.81;;;16.13;100.00
10946;BME280;5525;42.648;23.368;2023-09-18T03:39:30;95213.72;;;16.08;100.00
10946;BME280;5525;42.648;23.368;2023-09-18T03:41:58;95210.66;;;16.09;100.00
10946;BME280;5525;42.648;23.368;2023-09-18T03:44:25;95203.16;;;16.06;100.00
10946;BME280;5525;42.648;23.368;2023-09-18T03:46:52;95198.50;;;16.07;100.00
10946;BME280;5525;42.648;23.368;2023-09-18T03:49:19;95203.16;;;16.06;100.00
10946;BME280;5525;42.648;23.368;2023-09-18T03:51:45;95205.88;;;16.06;100.00
10946;BME280;5525;42.648;23.368;2023-09-18T03:54:12;95200.53;;;16.10;100.00
10946;BME280;5525;42.648;23.368;2023-09-18T03:56:38;95201.81;;;16.00;100.00
10946;BME280;5525;42.648;23.368;2023-09-18T03:59:07;95202.25;;;16.02;100.00
10946;BME280;5525;42.648;23.368;2023-09-18T04:01:33;95203.06;;;16.03;100.00
10946;BME280;5525;42.648;23.368;2023-09-18T04:04:00;95200.66;;;16.01;100.00
10946;BME280;5525;42.648;23.368;2023-09-18T04:06:36;95203.59;;;16.08;100.00
10946;BME280;5525;42.648;23.368;2023-09-18T04:09:03;95207.00;;;16.05;100.00
10946;BME280;5525;42.648;23.368;2023-09-18T04:11:29;95203.06;;;16.03;100.00
10946;BME280;5525;42.648;23.368;2023-09-18T04:13:57;95205.44;;;16.04;100.00
10946;BME280;5525;42.648;23.368;2023-09-18T04:16:25;95199.09;;;16.00;100.00
10946;BME280;5525;42.648;23.368;2023-09-18T04:18:52;95207.63;;;15.99;100.00
10946;BME280;5525;42.648;23.368;2023-09-18T04:21:19;95204.44;;;15.97;100.00
10946;BME280;5525;42.648;23.368;2023-09-18T04:23:47;95207.38;;;15.92;100.00
10946;BME280;5525;42.648;23.368;2023-09-18T04:26:14;95206.63;;;15.91;100.00
10946;BME280;5525;42.648;23.368;2023-09-18T04:28:41;95212.41;;;15.90;100.00
10946;BME280;5525;42.648;23.368;2023-09-18T04:31:07;95216.69;;;15.91;100.00
10946;BME280;5525;42.648;23.368;2023-09-18T04:33:36;95218.41;;;15.95;100.00
10946;BME280;5525;42.648;23.368;2023-09-18T04:36:03;95216.69;;;15.91;100.00
10946;BME280;5525;42.648;23.368;2023-09-18T04:38:30;95211.81;;;15.96;100.00
10946;BME280;5525;42.648;23.368;2023-09-18T04:40:58;95209.66;;;16.02;100.00
10946;BME280;5525;42.648;23.368;2023-09-18T04:43:24;95216.88;;;16.10;100.00
10946;BME280;5525;42.648;23.368;2023-09-18T04:45:51;95217.09;;;16.17;100.00
10946;BME280;5525;42.648;23.368;2023-09-18T04:48:18;95213.22;;;16.18;100.00
10946;BME280;5525;42.648;23.368;2023-09-18T04:50:46;95221.16;;;16.23;100.00
10946;BME280;5525;42.648;23.368;2023-09-18T04:53:12;95216.69;;;16.30;100.00
10946;BME280;5525;42.648;23.368;2023-09-18T04:55:39;95217.94;;;16.45;100.00
10946;BME280;5525;42.648;23.368;2023-09-18T04:58:06;95217.78;;;16.53;100.00
10946;BME280;5525;42.648;23.368;2023-09-18T05:00:33;95211.72;;;16.60;100.00
10946;BME280;5525;42.648;23.368;2023-09-18T05:03:00;95210.88;;;16.71;100.00
10946;BME280;5525;42.648;23.368;2023-09-18T05:05:28;95205.56;;;16.63;100.00
10946;BME280;5525;42.648;23.368;2023-09-18T05:07:57;95210.28;;;16.78;100.00
10946;BME280;5525;42.648;23.368;2023-09-18T05:10:23;95206.03;;;16.80;100.00
10946;BME280;5525;42.648;23.368;2023-09-18T05:12:51;95211.53;;;16.96;100.00
10946;BME280;5525;42.648;23.368;2023-09-18T05:15:23;95209.97;;;17.11;100.00
10946;BME280;5525;42.648;23.368;2023-09-18T05:17:52;95205.81;;;17.17;100.00
10946;BME280;5525;42.648;23.368;2023-09-18T05:20:22;95214.88;;;17.21;100.00
10946;BME280;5525;42.648;23.368;2023-09-18T05:22:50;95227.47;;;17.41;100.00
10946;BME280;5525;42.648;23.368;2023-09-18T05:25:20;95226.25;;;17.38;100.00
10946;BME280;5525;42.648;23.368;2023-09-18T05:27:48;95228.63;;;17.40;100.00
10946;BME280;5525;42.648;23.368;2023-09-18T05:30:23;95231.47;;;17.59;100.00
10946;BME280;5525;42.648;23.368;2023-09-18T05:32:50;95224.66;;;17.68;100.00
10946;BME280;5525;42.648;23.368;2023-09-18T05:35:18;95228.44;;;17.79;100.00
10946;BME280;5525;42.648;23.368;2023-09-18T05:37:44;95225.16;;;17.89;100.00
10946;BME280;5525;42.648;23.368;2023-09-18T05:40:12;95225.31;;;17.96;100.00
10946;BME280;5525;42.648;23.368;2023-09-18T05:42:42;95221.09;;;17.99;100.00
10946;BME280;5525;42.648;23.368;2023-09-18T05:45:09;95223.53;;;18.04;100.00
10946;BME280;5525;42.648;23.368;2023-09-18T05:47:36;95223.75;;;18.14;100.00
10946;BME280;5525;42.648;23.368;2023-09-18T05:50:04;95227.41;;;18.37;100.00
10946;BME280;5525;42.648;23.368;2023-09-18T05:52:32;95235.41;;;18.46;100.00
10946;BME280;5525;42.648;23.368;2023-09-18T05:54:58;95231.09;;;18.45;100.00
10946;BME280;5525;42.648;23.368;2023-09-18T05:57:25;95226.31;;;18.42;100.00
10946;BME280;5525;42.648;23.368;2023-09-18T05:59:55;95232.31;;;18.48;100.00
10946;BME280;5525;42.648;23.368;2023-09-18T06:02:22;95237.84;;;18.70;100.00
10946;BME280;5525;42.648;23.368;2023-09-18T06:04:54;95236.38;;;18.95;100.00
10946;BME280;5525;42.648;23.368;2023-09-18T06:07:21;95233.94;;;18.90;100.00
10946;BME280;5525;42.648;23.368;2023-09-18T06:09:48;95237.06;;;19.11;100.00
10946;BME280;5525;42.648;23.368;2023-09-18T06:12:15;95229.28;;;19.13;100.00
10946;BME280;5525;42.648;23.368;2023-09-18T06:14:42;95238.22;;;19.29;100.00
10946;BME280;5525;42.648;23.368;2023-09-18T06:17:11;95231.34;;;19.39;100.00
10946;BME280;5525;42.648;23.368;2023-09-18T06:19:40;95230.53;;;19.61;100.00
10946;BME280;5525;42.648;23.368;2023-09-18T06:22:06;95234.66;;;19.74;100.00
10946;BME280;5525;42.648;23.368;2023-09-18T06:24:34;95229.38;;;19.62;100.00
10946;BME280;5525;42.648;23.368;2023-09-18T06:27:00;95228.25;;;19.89;100.00
10946;BME280;5525;42.648;23.368;2023-09-18T06:29:27;95234.34;;;20.05;100.00
10946;BME280;5525;42.648;23.368;2023-09-18T06:31:54;95239.66;;;20.17;100.00
10946;BME280;5525;42.648;23.368;2023-09-18T06:34:22;95236.13;;;20.46;100.00
10946;BME280;5525;42.648;23.368;2023-09-18T06:36:49;95239.84;;;22.21;100.00
10946;BME280;5525;42.648;23.368;2023-09-18T06:39:15;95228.72;;;25.83;100.00
10946;BME280;5525;42.648;23.368;2023-09-18T06:41:42;95241.72;;;28.64;100.00
10946;BME280;5525;42.648;23.368;2023-09-18T06:44:09;95247.47;;;30.99;87.13
10946;BME280;5525;42.648;23.368;2023-09-18T06:46:35;95257.41;;;32.92;69.46
10946;BME280;5525;42.648;23.368;2023-09-18T06:49:02;95263.38;;;32.68;64.03
10946;BME280;5525;42.648;23.368;2023-09-18T06:51:30;95263.56;;;34.25;59.43
10946;BME280;5525;42.648;23.368;2023-09-18T06:53:57;95258.44;;;32.72;59.44
10946;BME280;5525;42.648;23.368;2023-09-18T06:56:24;95264.78;;;30.62;69.49
10946;BME280;5525;42.648;23.368;2023-09-18T06:58:51;95254.19;;;28.56;81.25
10946;BME280;5525;42.648;23.368;2023-09-18T07:01:18;95251.91;;;27.74;92.59
10946;BME280;5525;42.648;23.368;2023-09-18T07:03:45;95249.13;;;28.28;94.34
10946;BME280;5525;42.648;23.368;2023-09-18T07:06:12;95259.06;;;31.80;73.04
10946;BME280;5525;42.648;23.368;2023-09-18T07:08:40;95263.41;;;34.29;57.25
10946;BME280;5525;42.648;23.368;2023-09-18T07:11:07;95261.50;;;34.56;52.71
10946;BME280;5525;42.648;23.368;2023-09-18T07:13:34;95256.59;;;32.44;56.91
10946;BME280;5525;42.648;23.368;2023-09-18T07:16:01;95245.69;;;32.00;61.57
10946;BME280;5525;42.648;23.368;2023-09-18T07:18:28;95262.19;;;35.14;52.17
10946;BME280;5525;42.648;23.368;2023-09-18T07:20:55;95263.00;;;36.99;44.59
10946;BME280;5525;42.648;23.368;2023-09-18T07:23:22;95266.38;;;35.64;45.65
10946;BME280;5525;42.648;23.368;2023-09-18T07:25:50;95263.00;;;37.23;42.36
10946;BME280;5525;42.648;23.368;2023-09-18T07:28:17;95260.75;;;36.89;42.67
10946;BME280;5525;42.648;23.368;2023-09-18T07:30:44;95270.34;;;37.20;40.45
10946;BME280;5525;42.648;23.368;2023-09-18T07:33:11;95272.97;;;38.84;37.89
10946;BME280;5525;42.648;23.368;2023-09-18T07:35:38;95276.59;;;39.25;35.34
10946;BME280;5525;42.648;23.368;2023-09-18T07:38:05;95276.72;;;40.33;33.88
10946;BME280;5525;42.648;23.368;2023-09-18T07:40:33;95268.63;;;39.43;34.62
10946;BME280;5525;42.648;23.368;2023-09-18T07:43:01;95273.66;;;40.10;33.31
10946;BME280;5525;42.648;23.368;2023-09-18T07:45:28;95265.78;;;39.03;33.55
10946;BME280;5525;42.648;23.368;2023-09-18T07:47:54;95264.53;;;39.04;35.01
10946;BME280;5525;42.648;23.368;2023-09-18T07:50:21;95270.88;;;39.85;32.84
10946;BME280;5525;42.648;23.368;2023-09-18T07:52:47;95277.09;;;40.20;31.81
10946;BME280;5525;42.648;23.368;2023-09-18T07:55:14;95270.84;;;40.10;31.35
10946;BME280;5525;42.648;23.368;2023-09-18T07:57:41;95269.16;;;39.93;31.68
10946;BME280;5525;42.648;23.368;2023-09-18T08:00:12;95260.59;;;38.47;33.71
10946;BME280;5525;42.648;23.368;2023-09-18T08:02:41;95259.47;;;40.05;31.57
10946;BME280;5525;42.648;23.368;2023-09-18T08:05:08;95255.56;;;41.07;30.35
10946;BME280;5525;42.648;23.368;2023-09-18T08:07:35;95254.41;;;39.38;31.23
10946;BME280;5525;42.648;23.368;2023-09-18T08:10:02;95249.91;;;37.49;34.27
10946;BME280;5525;42.648;23.368;2023-09-18T08:12:31;95246.25;;;40.53;31.23
10946;BME280;5525;42.648;23.368;2023-09-18T08:14:58;95252.13;;;40.86;30.22
10946;BME280;5525;42.648;23.368;2023-09-18T08:17:26;95262.34;;;40.73;30.41
10946;BME280;5525;42.648;23.368;2023-09-18T08:19:53;95253.81;;;40.67;29.69
10946;BME280;5525;42.648;23.368;2023-09-18T08:22:20;95254.59;;;42.18;28.41
10946;BME280;5525;42.648;23.368;2023-09-18T08:24:47;95246.00;;;41.57;27.94
10946;BME280;5525;42.648;23.368;2023-09-18T08:27:14;95240.94;;;39.27;30.81
10946;BME280;5525;42.648;23.368;2023-09-18T08:29:43;95239.69;;;41.20;28.72
10946;BME280;5525;42.648;23.368;2023-09-18T08:32:09;95229.16;;;41.43;28.48
10946;BME280;5525;42.648;23.368;2023-09-18T08:34:37;95232.94;;;42.21;27.46
10946;BME280;5525;42.648;23.368;2023-09-18T08:37:04;95238.91;;;41.20;28.48
10946;BME280;5525;42.648;23.368;2023-09-18T08:39:31;95232.91;;;42.65;26.92
10946;BME280;5525;42.648;23.368;2023-09-18T08:42:01;95234.69;;;42.90;26.62
10946;BME280;5525;42.648;23.368;2023-09-18T08:44:29;95224.63;;;42.83;26.64
10946;BME280;5525;42.648;23.368;2023-09-18T08:46:56;95230.34;;;43.41;25.97
10946;BME280;5525;42.648;23.368;2023-09-18T08:49:24;95210.19;;;42.76;25.80
10946;BME280;5525;42.648;23.368;2023-09-18T08:51:54;95205.31;;;42.21;26.64
10946;BME280;5525;42.648;23.368;2023-09-18T08:54:21;95204.94;;;42.91;25.30
10946;BME280;5525;42.648;23.368;2023-09-18T08:56:49;95211.06;;;43.17;24.89
10946;BME280;5525;42.648;23.368;2023-09-18T08:59:16;95211.50;;;43.38;24.73
10946;BME280;5525;42.648;23.368;2023-09-18T09:01:43;95219.31;;;43.72;24.03
10946;BME280;5525;42.648;23.368;2023-09-18T09:04:10;95216.50;;;43.15;24.70
10946;BME280;5525;42.648;23.368;2023-09-18T09:06:37;95199.16;;;40.19;28.11
10946;BME280;5525;42.648;23.368;2023-09-18T09:09:05;95199.13;;;40.56;27.89
10946;BME280;5525;42.648;23.368;2023-09-18T09:11:33;95200.13;;;42.75;25.02
10946;BME280;5525;42.648;23.368;2023-09-18T09:14:09;95203.50;;;42.29;24.57
10946;BME280;5525;42.648;23.368;2023-09-18T09:16:41;95199.00;;;37.96;29.25
10946;BME280;5525;42.648;23.368;2023-09-18T09:19:12;95190.88;;;34.76;34.78
10946;BME280;5525;42.648;23.368;2023-09-18T09:21:40;95186.47;;;36.07;34.14
10946;BME280;5525;42.648;23.368;2023-09-18T09:24:10;95177.53;;;34.98;35.82
10946;BME280;5525;42.648;23.368;2023-09-18T09:26:40;95180.75;;;37.77;32.32
10946;BME280;5525;42.648;23.368;2023-09-18T09:29:14;95183.78;;;38.98;30.49
10946;BME280;5525;42.648;23.368;2023-09-18T09:31:43;95193.09;;;40.37;27.90
10946;BME280;5525;42.648;23.368;2023-09-18T09:34:10;95175.19;;;40.57;27.54
10946;BME280;5525;42.648;23.368;2023-09-18T09:36:51;95175.13;;;39.47;28.51
10946;BME280;5525;42.648;23.368;2023-09-18T09:39:19;95183.06;;;40.78;27.45
10946;BME280;5525;42.648;23.368;2023-09-18T09:41:47;95178.63;;;39.16;29.05
10946;BME280;5525;42.648;23.368;2023-09-18T09:44:15;95168.31;;;37.26;30.91
10946;BME280;5525;42.648;23.368;2023-09-18T09:46:45;95153.66;;;33.90;35.65
10946;BME280;5525;42.648;23.368;2023-09-18T09:49:12;95151.13;;;32.79;37.91
10946;BME280;5525;42.648;23.368;2023-09-18T09:51:41;95148.50;;;34.65;36.63
10946;BME280;5525;42.648;23.368;2023-09-18T09:54:08;95160.00;;;38.84;30.19
10946;BME280;5525;42.648;23.368;2023-09-18T09:56:43;95149.38;;;38.04;30.62
10946;BME280;5525;42.648;23.368;2023-09-18T09:59:11;95153.53;;;39.24;29.44
10946;BME280;5525;42.648;23.368;2023-09-18T10:01:40;95155.81;;;40.39;27.84
10946;BME280;5525;42.648;23.368;2023-09-18T10:04:12;95156.75;;;40.72;27.04
10946;BME280;5525;42.648;23.368;2023-09-18T10:06:43;95154.25;;;41.83;25.49
10946;BME280;5525;42.648;23.368;2023-09-18T10:09:10;95151.81;;;41.15;25.60
10946;BME280;5525;42.648;23.368;2023-09-18T10:11:43;95153.13;;;42.57;24.02
10946;BME280;5525;42.648;23.368;2023-09-18T10:14:14;95159.47;;;42.91;23.75
10946;BME280;5525;42.648;23.368;2023-09-18T10:16:45;95154.56;;;42.91;23.46
10946;BME280;5525;42.648;23.368;2023-09-18T10:19:21;95157.56;;;43.15;23.24
10946;BME280;5525;42.648;23.368;2023-09-18T10:22:00;95154.44;;;44.00;22.48
10946;BME280;5525;42.648;23.368;2023-09-18T10:24:33;95138.63;;;40.11;25.28
10946;BME280;5525;42.648;23.368;2023-09-18T10:27:04;95133.50;;;41.21;24.42
10946;BME280;5525;42.648;23.368;2023-09-18T10:29:33;95137.47;;;42.07;23.56
10946;BME280;5525;42.648;23.368;2023-09-18T10:32:02;95138.91;;;42.57;22.41
10946;BME280;5525;42.648;23.368;2023-09-18T10:34:30;95133.47;;;43.28;22.42
10946;BME280;5525;42.648;23.368;2023-09-18T10:37:00;95133.66;;;43.41;22.78
10946;BME280;5525;42.648;23.368;2023-09-18T10:39:28;95119.38;;;42.32;23.47
10946;BME280;5525;42.648;23.368;2023-09-18T10:42:01;95114.13;;;40.45;24.70
10946;BME280;5525;42.648;23.368;2023-09-18T10:44:30;95108.47;;;40.39;25.23
10946;BME280;5525;42.648;23.368;2023-09-18T10:46:58;95105.31;;;39.33;25.75
10946;BME280;5525;42.648;23.368;2023-09-18T10:49:26;95087.56;;;36.93;28.80
10946;BME280;5525;42.648;23.368;2023-09-18T10:51:54;95088.53;;;37.34;28.62
10946;BME280;5525;42.648;23.368;2023-09-18T10:54:22;95083.81;;;38.90;27.19
10946;BME280;5525;42.648;23.368;2023-09-18T10:56:50;95092.34;;;39.46;26.33
10946;BME280;5525;42.648;23.368;2023-09-18T10:59:17;95070.69;;;36.70;28.95
10946;BME280;5525;42.648;23.368;2023-09-18T11:01:45;95074.50;;;32.98;34.44
10946;BME280;5525;42.648;23.368;2023-09-18T11:04:13;95063.31;;;32.77;36.03
10946;BME280;5525;42.648;23.368;2023-09-18T11:07:03;95069.25;;;35.56;32.72
10946;BME280;5525;42.648;23.368;2023-09-18T11:09:32;95073.94;;;37.06;30.11
10946;BME280;5525;42.648;23.368;2023-09-18T11:12:06;95075.88;;;38.68;28.04
10946;BME280;5525;42.648;23.368;2023-09-18T11:14:45;95077.63;;;39.11;27.06
10946;BME280;5525;42.648;23.368;2023-09-18T11:17:32;95071.41;;;39.33;26.52
10946;BME280;5525;42.648;23.368;2023-09-18T11:20:08;95072.03;;;39.79;25.78
10946;BME280;5525;42.648;23.368;2023-09-18T11:22:37;95063.72;;;40.49;25.07
10946;BME280;5525;42.648;23.368;2023-09-18T11:25:30;95071.97;;;39.68;25.79
10946;BME280;5525;42.648;23.368;2023-09-18T11:28:01;95056.56;;;39.12;26.51
10946;BME280;5525;42.648;23.368;2023-09-18T11:30:28;95058.28;;;40.40;25.21
10946;BME280;5525;42.648;23.368;2023-09-18T11:32:57;95047.34;;;37.86;27.22
10946;BME280;5525;42.648;23.368;2023-09-18T11:35:24;95039.59;;;36.12;29.56
10946;BME280;5525;42.648;23.368;2023-09-18T11:38:03;95036.44;;;34.61;31.31
10946;BME280;5525;42.648;23.368;2023-09-18T11:40:32;95025.19;;;35.30;30.76
10946;BME280;5525;42.648;23.368;2023-09-18T11:43:24;95029.59;;;37.51;28.62
10946;BME280;5525;42.648;23.368;2023-09-18T11:45:52;95029.59;;;37.51;28.58
10946;BME280;5525;42.648;23.368;2023-09-18T11:48:22;95029.28;;;37.63;28.34
10946;BME280;5525;42.648;23.368;2023-09-18T11:50:51;95026.44;;;37.43;28.52
10946;BME280;5525;42.648;23.368;2023-09-18T11:53:20;95023.06;;;37.24;28.58
10946;BME280;5525;42.648;23.368;2023-09-18T11:55:47;95021.50;;;37.73;28.34
10946;BME280;5525;42.648;23.368;2023-09-18T11:58:14;95023.59;;;37.58;28.17
10946;BME280;5525;42.648;23.368;2023-09-18T12:00:41;95015.84;;;35.89;29.83
10946;BME280;5525;42.648;23.368;2023-09-18T12:03:14;95014.63;;;35.16;31.44
10946;BME280;5525;42.648;23.368;2023-09-18T12:05:45;95018.00;;;34.96;31.77
10946;BME280;5525;42.648;23.368;2023-09-18T12:08:13;95022.28;;;34.47;32.34
10946;BME280;5525;42.648;23.368;2023-09-18T12:10:40;95005.31;;;32.77;35.49
10946;BME280;5525;42.648;23.368;2023-09-18T12:13:08;95009.56;;;33.52;34.42
10946;BME280;5525;42.648;23.368;2023-09-18T12:15:37;95015.19;;;33.79;35.08
10946;BME280;5525;42.648;23.368;2023-09-18T12:18:05;95011.94;;;33.23;36.33
10946;BME280;5525;42.648;23.368;2023-09-18T12:20:32;95000.22;;;33.46;36.57
10946;BME280;5525;42.648;23.368;2023-09-18T12:23:01;95002.16;;;32.01;38.83
10946;BME280;5525;42.648;23.368;2023-09-18T12:25:29;94989.28;;;31.10;41.60
10946;BME280;5525;42.648;23.368;2023-09-18T12:27:55;94987.84;;;30.93;43.40
10946;BME280;5525;42.648;23.368;2023-09-18T12:30:24;94985.97;;;30.49;45.77
10946;BME280;5525;42.648;23.368;2023-09-18T12:32:52;94988.88;;;30.71;46.64
10946;BME280;5525;42.648;23.368;2023-09-18T12:35:19;94983.84;;;30.41;47.22
10946;BME280;5525;42.648;23.368;2023-09-18T12:37:46;94990.56;;;29.41;51.05
10946;BME280;5525;42.648;23.368;2023-09-18T12:40:24;94986.09;;;28.80;55.17
10946;BME280;5525;42.648;23.368;2023-09-18T12:42:53;94984.28;;;28.34;58.02
10946;BME280;5525;42.648;23.368;2023-09-18T12:45:20;94979.84;;;28.01;61.15
10946;BME280;5525;42.648;23.368;2023-09-18T12:47:47;94981.06;;;27.77;63.05
10946;BME280;5525;42.648;23.368;2023-09-18T12:50:14;94985.94;;;27.50;64.37
10946;BME280;5525;42.648;23.368;2023-09-18T12:52:41;94974.53;;;27.67;63.94
10946;BME280;5525;42.648;23.368;2023-09-18T12:55:08;94974.50;;;27.48;64.76
10946;BME280;5525;42.648;23.368;2023-09-18T12:57:39;94970.88;;;27.51;65.83
10946;BME280;5525;42.648;23.368;2023-09-18T13:00:09;94974.44;;;27.51;67.40